createdAt,value
2023-01-23T00:01:18.906Z,93.55
2023-01-23T00:03:45.799Z,93.51
2023-01-23T00:06:14.166Z,93.68
2023-01-23T00:08:41.311Z,93.78
2023-01-23T00:11:09.740Z,93.59
2023-01-23T00:13:36.591Z,93.48
2023-01-23T00:16:05.516Z,93.68
2023-01-23T00:18:32.711Z,93.86
2023-01-23T00:21:03.241Z,94.10
2023-01-23T00:23:30.101Z,94.17
2023-01-23T00:26:02.545Z,93.77
2023-01-23T00:28:29.430Z,93.69
2023-01-23T00:31:06.036Z,93.70
2023-01-23T00:33:32.957Z,93.92
2023-01-23T00:36:00.352Z,93.96
2023-01-23T00:38:27.347Z,93.64
2023-01-23T00:40:55.286Z,93.46
2023-01-23T00:43:22.944Z,93.57
2023-01-23T00:45:50.208Z,93.73
2023-01-23T00:48:17.018Z,93.95
2023-01-23T00:50:44.476Z,93.72
2023-01-23T00:53:13.151Z,93.49
2023-01-23T00:55:40.551Z,93.77
2023-01-23T00:58:08.719Z,93.81
2023-01-23T01:00:38.600Z,93.95
2023-01-23T01:03:05.647Z,93.90
2023-01-23T01:05:32.959Z,93.44
2023-01-23T01:07:59.751Z,93.06
2023-01-23T01:10:29.681Z,93.13
2023-01-23T01:12:57.763Z,93.22
2023-01-23T01:15:24.821Z,93.14
2023-01-23T01:17:54.306Z,92.77
2023-01-23T01:20:23.796Z,92.59
2023-01-23T01:22:50.687Z,92.82
2023-01-23T01:25:17.741Z,92.91
2023-01-23T01:27:44.674Z,92.86
2023-01-23T01:30:11.865Z,92.54
2023-01-23T01:32:39.904Z,92.28
2023-01-23T01:35:08.136Z,92.45
2023-01-23T01:37:36.055Z,92.23
2023-01-23T01:40:03.593Z,92.44
2023-01-23T01:42:30.627Z,92.10
2023-01-23T01:45:01.563Z,91.91
2023-01-23T01:47:28.375Z,91.93
2023-01-23T01:50:01.534Z,92.04
2023-01-23T01:52:28.319Z,92.15
2023-01-23T01:55:05.023Z,91.83
2023-01-23T01:57:36.400Z,91.77
2023-01-23T02:00:12.372Z,91.91
2023-01-23T02:02:45.303Z,92.08
2023-01-23T02:05:14.399Z,92.04
2023-01-23T02:07:54.974Z,91.54
2023-01-23T02:10:22.726Z,91.19
2023-01-23T02:12:51.636Z,91.41
2023-01-23T02:15:21.094Z,91.53
2023-01-23T02:17:49.403Z,91.60
2023-01-23T02:20:24.164Z,91.46
2023-01-23T02:22:57.792Z,91.14
2023-01-23T02:25:29.558Z,91.19
2023-01-23T02:27:56.674Z,91.18
2023-01-23T02:30:23.998Z,91.20
2023-01-23T02:32:52.286Z,91.29
2023-01-23T02:35:28.156Z,90.98
2023-01-23T02:37:58.925Z,90.51
2023-01-23T02:40:37.470Z,90.65
2023-01-23T02:43:06.163Z,90.59
2023-01-23T02:45:33.915Z,90.75
2023-01-23T02:48:01.785Z,90.71
2023-01-23T02:50:29.030Z,90.46
2023-01-23T02:52:58.041Z,89.96
2023-01-23T02:55:26.705Z,90.04
2023-01-23T02:57:53.856Z,90.10
2023-01-23T03:00:22.368Z,90.10
2023-01-23T03:02:50.886Z,90.11
2023-01-23T03:05:18.246Z,89.44
2023-01-23T03:07:45.019Z,89.24
2023-01-23T03:10:12.481Z,89.07
2023-01-23T03:12:43.827Z,89.17
2023-01-23T03:15:13.212Z,89.05
2023-01-23T03:17:40.259Z,88.89
2023-01-23T03:20:07.558Z,88.47
2023-01-23T03:22:34.760Z,88.28
2023-01-23T03:25:01.580Z,88.13
2023-01-23T03:27:28.916Z,88.36
2023-01-23T03:30:15.836Z,88.44
2023-01-23T03:32:43.572Z,88.60
2023-01-23T03:35:10.688Z,88.60
2023-01-23T03:37:37.451Z,88.64
2023-01-23T03:40:23.226Z,88.82
2023-01-23T03:42:49.975Z,89.12
2023-01-23T03:45:23.529Z,89.55
2023-01-23T03:47:51.069Z,89.32
2023-01-23T03:50:18.052Z,88.98
2023-01-23T03:52:45.260Z,89.04
2023-01-23T03:55:12.070Z,89.31
2023-01-23T03:57:38.895Z,89.55
2023-01-23T04:00:06.632Z,89.64
2023-01-23T04:02:45.575Z,89.49
2023-01-23T04:05:13.890Z,89.28
2023-01-23T04:09:09.051Z,89.08
2023-01-23T04:11:36.224Z,89.27
2023-01-23T04:14:05.138Z,89.34
2023-01-23T04:16:32.248Z,89.44
2023-01-23T04:18:59.407Z,89.29
2023-01-23T04:21:26.994Z,89.12
2023-01-23T04:23:53.976Z,89.57
2023-01-23T04:26:21.095Z,89.85
2023-01-23T04:28:47.977Z,89.83
2023-01-23T04:31:15.859Z,90.29
2023-01-23T04:33:45.037Z,90.02
2023-01-23T04:36:12.388Z,89.82
2023-01-23T04:38:39.034Z,90.26
2023-01-23T04:41:21.920Z,90.45
2023-01-23T04:43:50.082Z,90.60
2023-01-23T04:46:17.316Z,90.87
2023-01-23T04:49:08.627Z,90.89
2023-01-23T04:51:37.012Z,90.77
2023-01-23T04:54:04.488Z,90.87
2023-01-23T04:56:32.387Z,90.96
2023-01-23T04:59:00.107Z,91.10
2023-01-23T05:01:27.006Z,91.29
2023-01-23T05:03:56.724Z,90.89
2023-01-23T05:06:24.148Z,90.50
2023-01-23T05:08:52.584Z,90.55
2023-01-23T05:11:27.897Z,90.84
2023-01-23T05:13:54.572Z,90.98
2023-01-23T05:16:21.551Z,91.20
2023-01-23T05:19:12.008Z,90.95
2023-01-23T05:21:38.976Z,90.70
2023-01-23T05:24:06.418Z,90.62
2023-01-23T05:26:34.662Z,90.64
2023-01-23T05:29:03.002Z,90.73
2023-01-23T05:31:30.018Z,90.67
2023-01-23T05:34:23.490Z,90.48
2023-01-23T05:36:50.188Z,90.39
2023-01-23T05:39:16.849Z,90.47
2023-01-23T05:41:43.924Z,90.64
2023-01-23T05:44:31.898Z,90.43
2023-01-23T05:47:04.959Z,90.18
2023-01-23T05:49:33.225Z,89.68
2023-01-23T05:51:59.924Z,89.68
2023-01-23T05:54:29.369Z,90.04
2023-01-23T05:56:56.223Z,90.18
2023-01-23T05:59:41.501Z,90.44
2023-01-23T06:02:28.643Z,90.13
2023-01-23T06:05:15.952Z,90.28
2023-01-23T06:07:56.750Z,90.57
2023-01-23T06:10:25.606Z,90.67
2023-01-23T06:12:52.464Z,90.63
2023-01-23T06:15:19.105Z,90.40
2023-01-23T06:17:46.043Z,90.39
2023-01-23T06:20:13.807Z,90.44
2023-01-23T06:22:41.882Z,90.92
2023-01-23T06:25:11.814Z,90.95
2023-01-23T06:27:38.917Z,90.76
2023-01-23T06:30:08.443Z,90.53
2023-01-23T06:32:43.660Z,90.38
2023-01-23T06:35:11.631Z,90.67
2023-01-23T06:37:41.040Z,90.96
2023-01-23T06:40:13.588Z,90.96
2023-01-23T06:42:43.016Z,90.58
2023-01-23T06:45:10.794Z,90.44
2023-01-23T06:47:37.829Z,90.69
2023-01-23T06:50:05.794Z,90.96
2023-01-23T06:52:36.105Z,91.21
2023-01-23T06:55:02.985Z,91.06
2023-01-23T06:57:30.247Z,91.02
2023-01-23T06:59:57.244Z,91.02
2023-01-23T07:02:25.552Z,91.19
2023-01-23T07:04:52.788Z,91.17
2023-01-23T07:07:22.092Z,91.04
2023-01-23T07:09:49.345Z,91.00
2023-01-23T07:12:19.216Z,90.63
2023-01-23T07:14:46.177Z,90.55
2023-01-23T07:17:16.730Z,90.73
2023-01-23T07:19:43.918Z,90.82
2023-01-23T07:22:12.226Z,90.83
2023-01-23T07:24:39.421Z,90.51
2023-01-23T07:27:06.113Z,90.54
2023-01-23T07:29:34.036Z,90.69
2023-01-23T07:32:00.666Z,90.96
2023-01-23T07:34:28.005Z,91.04
2023-01-23T07:36:55.368Z,91.06
2023-01-23T07:39:22.217Z,90.93
2023-01-23T07:41:48.784Z,91.24
2023-01-23T07:44:17.490Z,91.32
2023-01-23T07:46:45.322Z,91.40
2023-01-23T07:49:12.550Z,91.28
2023-01-23T07:51:39.846Z,91.04
2023-01-23T07:54:06.969Z,90.70
2023-01-23T07:56:34.347Z,90.59
2023-01-23T07:59:01.240Z,91.05
2023-01-23T08:01:28.189Z,91.05
2023-01-23T08:03:55.095Z,90.91
2023-01-23T08:06:21.877Z,90.69
2023-01-23T08:08:49.476Z,90.37
2023-01-23T08:11:16.518Z,90.83
2023-01-23T08:13:43.263Z,91.05
2023-01-23T08:16:13.352Z,91.10
2023-01-23T08:18:40.388Z,91.18
2023-01-23T08:21:07.437Z,90.87
2023-01-23T08:23:35.351Z,90.53
2023-01-23T08:26:04.092Z,90.60
2023-01-23T08:28:30.766Z,90.60
2023-01-23T08:31:01.815Z,90.66
2023-01-23T08:33:28.928Z,90.58
2023-01-23T08:35:57.157Z,90.43
2023-01-23T08:38:23.871Z,90.36
2023-01-23T08:40:52.121Z,90.27
2023-01-23T08:43:20.054Z,90.48
2023-01-23T08:45:50.770Z,90.37
2023-01-23T08:48:18.748Z,90.29
2023-01-23T08:50:45.876Z,89.88
2023-01-23T08:53:13.074Z,89.92
2023-01-23T08:55:40.130Z,90.05
2023-01-23T08:58:07.487Z,89.88
2023-01-23T09:00:34.321Z,89.84
2023-01-23T09:03:01.926Z,89.38
2023-01-23T09:05:28.930Z,89.01
2023-01-23T09:07:56.571Z,89.09
2023-01-23T09:10:24.570Z,89.02
2023-01-23T09:12:52.295Z,89.06
2023-01-23T09:15:19.024Z,88.91
2023-01-23T09:17:46.151Z,88.69
2023-01-23T09:20:13.175Z,88.69
2023-01-23T09:22:39.838Z,88.51
2023-01-23T09:25:07.238Z,88.56
2023-01-23T09:27:34.128Z,88.66
2023-01-23T09:30:00.848Z,88.72
2023-01-23T09:32:27.596Z,88.67
2023-01-23T09:34:54.673Z,88.64
2023-01-23T09:37:21.572Z,89.00
2023-01-23T09:39:51.089Z,89.10
2023-01-23T09:42:20.714Z,89.25
2023-01-23T09:44:50.052Z,89.39
2023-01-23T09:47:24.760Z,89.17
2023-01-23T09:50:06.683Z,89.23
2023-01-23T09:52:45.433Z,89.39
2023-01-23T09:55:21.354Z,89.46
2023-01-23T09:57:55.672Z,89.33
2023-01-23T10:00:27.055Z,89.13
2023-01-23T10:02:53.761Z,88.64
2023-01-23T10:05:25.564Z,88.74
2023-01-23T10:07:56.179Z,88.62
2023-01-23T10:10:54.128Z,88.72
2023-01-23T10:13:39.468Z,88.79
2023-01-23T10:16:25.049Z,88.99
2023-01-23T10:19:19.301Z,88.74
2023-01-23T10:22:25.475Z,88.84
2023-01-23T10:24:55.069Z,89.04
2023-01-23T10:27:24.039Z,89.09
2023-01-23T10:29:57.433Z,89.11
2023-01-23T10:35:18.163Z,88.90
2023-01-23T10:38:06.204Z,88.98
2023-01-23T10:40:52.574Z,89.16
2023-01-23T10:43:20.585Z,89.10
2023-01-23T10:45:48.512Z,89.00
2023-01-23T10:48:34.613Z,88.64
2023-01-23T10:51:01.636Z,88.63
2023-01-23T10:53:43.839Z,88.75
2023-01-23T10:56:13.672Z,88.93
2023-01-23T10:58:44.255Z,89.03
2023-01-23T11:01:38.779Z,88.78
2023-01-23T11:04:18.124Z,88.71
2023-01-23T11:06:51.240Z,88.88
2023-01-23T11:09:19.335Z,89.08
2023-01-23T11:12:04.506Z,89.23
2023-01-23T11:14:31.993Z,89.16
2023-01-23T11:17:03.637Z,88.88
2023-01-23T11:19:32.074Z,88.78
2023-01-23T11:22:03.563Z,88.75
2023-01-23T11:24:41.363Z,88.93
2023-01-23T11:27:29.266Z,89.07
2023-01-23T11:30:08.309Z,89.11
2023-01-23T11:32:55.148Z,88.75
2023-01-23T11:35:47.163Z,88.50
2023-01-23T11:38:19.791Z,88.78
2023-01-23T11:40:51.132Z,88.95
2023-01-23T11:43:17.772Z,88.84
2023-01-23T11:46:06.284Z,88.95
2023-01-23T11:52:48.144Z,88.88
2023-01-23T11:55:40.232Z,88.99
2023-01-23T11:58:25.836Z,88.88
2023-01-23T12:01:05.348Z,88.36
2023-01-23T12:04:00.404Z,88.19
2023-01-23T12:06:42.758Z,88.09
2023-01-23T12:09:19.664Z,88.47
2023-01-23T12:12:11.646Z,88.27
2023-01-23T12:14:50.539Z,88.24
2023-01-23T12:17:49.794Z,87.80
2023-01-23T12:20:44.356Z,87.30
2023-01-23T12:23:33.879Z,87.44
2023-01-23T12:26:11.974Z,87.54
2023-01-23T12:28:53.763Z,87.81
2023-01-23T12:31:36.878Z,87.75
2023-01-23T12:34:39.572Z,87.66
2023-01-23T12:37:30.673Z,87.60
2023-01-23T12:41:36.866Z,87.63
2023-01-23T12:44:34.191Z,87.62
2023-01-23T12:47:05.599Z,87.73
2023-01-23T12:50:04.359Z,87.32
2023-01-23T12:52:39.798Z,86.84
2023-01-23T12:55:20.829Z,86.95
2023-01-23T12:57:59.468Z,87.22
2023-01-23T13:00:37.771Z,87.42
2023-01-23T13:04:03.683Z,87.20
2023-01-23T13:06:40.539Z,87.01
2023-01-23T13:09:18.478Z,86.84
2023-01-23T13:11:56.224Z,87.20
2023-01-23T13:14:43.536Z,87.01
2023-01-23T13:17:26.828Z,86.81
2023-01-23T13:20:12.980Z,86.27
2023-01-23T13:22:39.913Z,86.15
2023-01-23T13:25:19.981Z,86.31
2023-01-23T13:27:54.976Z,86.38
2023-01-23T13:30:35.757Z,86.43
2023-01-23T13:33:05.263Z,86.41
2023-01-23T13:35:39.304Z,86.27
2023-01-23T13:38:21.221Z,86.28
2023-01-23T13:41:06.202Z,86.49
2023-01-23T13:43:55.133Z,86.71
2023-01-23T13:46:28.021Z,86.67
2023-01-23T14:21:59.394Z,87.06
2023-01-23T14:24:44.584Z,87.06
2023-01-23T14:27:21.581Z,87.14
2023-01-23T14:29:59.916Z,87.04
2023-01-23T14:32:29.419Z,86.87
2023-01-23T14:34:56.273Z,86.52
2023-01-23T14:37:23.002Z,86.68
2023-01-23T14:39:53.702Z,86.57
2023-01-23T14:42:30.340Z,86.59
2023-01-23T14:44:58.391Z,86.66
2023-01-23T14:47:34.722Z,86.48
2023-01-23T14:50:02.246Z,86.45
2023-01-23T14:52:30.220Z,86.68
2023-01-23T14:55:01.178Z,86.88
2023-01-23T14:57:34.706Z,87.01
2023-01-23T15:00:01.858Z,86.90
2023-01-23T15:05:26.385Z,86.63
2023-01-23T15:07:57.319Z,86.78
2023-01-23T15:10:40.061Z,86.71
2023-01-23T15:13:09.738Z,86.77
2023-01-23T15:15:36.684Z,86.82
2023-01-23T15:18:05.886Z,86.71
2023-01-23T15:20:40.397Z,86.61
2023-01-23T15:23:26.893Z,86.66
2023-01-23T15:26:19.411Z,87.05
2023-01-23T15:29:20.178Z,86.94
2023-01-23T15:31:51.116Z,87.08
2023-01-23T15:34:50.323Z,86.73
2023-01-23T15:37:20.229Z,86.50
2023-01-23T15:39:59.298Z,86.87
2023-01-23T15:42:31.445Z,87.00
2023-01-23T15:45:00.941Z,87.08
2023-01-23T15:47:29.826Z,86.78
2023-01-23T15:50:01.079Z,86.20
2023-01-23T15:52:30.166Z,85.97
2023-01-23T15:55:02.542Z,86.14
2023-01-23T15:57:29.688Z,86.14
2023-01-23T15:59:56.749Z,86.09
2023-01-23T16:02:31.070Z,86.04
2023-01-23T16:05:00.764Z,85.81
2023-01-23T16:07:33.849Z,85.92
2023-01-23T16:10:25.992Z,85.95
2023-01-23T16:12:54.371Z,86.07
2023-01-23T16:15:25.111Z,86.16
2023-01-23T16:17:53.289Z,86.29
2023-01-23T16:20:22.176Z,86.05
2023-01-23T16:22:51.522Z,85.78
2023-01-23T16:27:18.966Z,85.95
2023-01-23T16:29:49.263Z,85.92
2023-01-23T16:32:17.541Z,85.95
2023-01-23T16:34:44.802Z,85.99
2023-01-23T16:37:16.143Z,85.72
2023-01-23T16:39:47.280Z,85.68
2023-01-23T16:42:22.434Z,85.83
2023-01-23T16:44:50.546Z,85.93
2023-01-23T16:47:17.952Z,86.00
2023-01-23T16:49:53.664Z,86.14
2023-01-23T16:52:22.598Z,86.11
2023-01-23T16:54:51.581Z,85.77
2023-01-23T16:57:19.353Z,85.56
2023-01-23T16:59:46.294Z,85.76
2023-01-23T17:02:20.841Z,85.87
2023-01-23T17:04:48.062Z,85.89
2023-01-23T17:07:16.562Z,85.90
2023-01-23T17:09:44.321Z,85.82
2023-01-23T17:12:14.428Z,85.57
2023-01-23T17:14:41.889Z,85.87
2023-01-23T17:17:15.801Z,86.11
2023-01-23T17:19:43.053Z,86.35
2023-01-23T17:22:27.307Z,86.21
2023-01-23T17:24:54.160Z,86.25
2023-01-23T17:27:21.510Z,86.10
2023-01-23T17:29:49.298Z,85.82
2023-01-23T17:32:34.150Z,86.03
2023-01-23T17:35:03.717Z,86.00
2023-01-23T17:37:30.792Z,86.04
2023-01-23T17:39:57.733Z,86.06
2023-01-23T17:42:24.772Z,85.81
2023-01-23T17:44:51.830Z,85.71
2023-01-23T17:47:19.198Z,85.87
2023-01-23T17:49:51.372Z,86.09
2023-01-23T17:52:21.150Z,86.14
2023-01-23T17:54:48.825Z,86.11
2023-01-23T17:57:19.448Z,85.93
2023-01-23T17:59:46.799Z,85.63
2023-01-23T18:02:27.213Z,85.55
2023-01-23T18:04:54.637Z,85.69
2023-01-23T18:07:21.886Z,85.72
2023-01-23T18:09:49.025Z,85.47
2023-01-23T18:12:23.079Z,85.63
2023-01-23T18:14:52.434Z,85.56
2023-01-23T18:17:27.270Z,85.66
2023-01-23T18:19:54.940Z,85.53
2023-01-23T18:22:22.896Z,85.73
2023-01-23T18:24:50.249Z,85.87
2023-01-23T18:27:24.879Z,85.86
2023-01-23T18:29:55.091Z,85.60
2023-01-23T18:32:50.111Z,85.54
2023-01-23T18:35:45.103Z,85.47
2023-01-23T18:38:14.846Z,85.69
2023-01-23T18:40:42.387Z,85.75
2023-01-23T18:43:15.146Z,85.61
2023-01-23T18:45:42.363Z,85.85
2023-01-23T18:48:24.733Z,85.65
2023-01-23T18:51:07.928Z,85.71
2023-01-23T18:53:43.399Z,85.97
2023-01-23T18:56:13.855Z,86.04
2023-01-23T18:59:11.666Z,86.00
2023-01-23T19:02:01.001Z,85.70
2023-01-23T19:04:56.709Z,85.56
2023-01-23T19:07:26.100Z,85.32
2023-01-23T19:09:53.548Z,85.49
2023-01-23T19:12:40.732Z,85.61
2023-01-23T19:15:36.616Z,85.73
2023-01-23T19:18:40.296Z,85.43
2023-01-23T19:21:24.502Z,85.09
2023-01-23T19:23:54.645Z,85.31
2023-01-23T19:26:22.421Z,85.34
2023-01-23T19:28:50.264Z,85.56
2023-01-23T19:31:24.424Z,85.49
2023-01-23T19:33:52.257Z,85.53
2023-01-23T19:36:19.673Z,85.22
2023-01-23T19:38:46.437Z,85.05
2023-01-23T19:41:41.374Z,85.31
2023-01-23T19:44:15.936Z,85.43
2023-01-23T19:46:43.416Z,85.43
2023-01-23T19:49:10.662Z,85.57
2023-01-23T19:51:39.197Z,85.70
2023-01-23T19:54:08.805Z,85.48
2023-01-23T19:56:36.023Z,85.30
2023-01-23T19:59:02.806Z,85.40
2023-01-23T20:01:34.837Z,85.41
2023-01-23T20:04:03.220Z,85.62
2023-01-23T20:06:33.743Z,85.57
2023-01-23T20:09:00.667Z,85.69
2023-01-23T20:11:27.540Z,85.51
2023-01-23T20:13:54.605Z,85.21
2023-01-23T20:16:24.633Z,85.47
2023-01-23T20:18:53.294Z,85.52
2023-01-23T20:21:21.969Z,85.70
2023-01-23T20:23:49.364Z,85.88
2023-01-23T20:26:18.309Z,85.83
2023-01-23T20:28:49.558Z,85.50
2023-01-23T20:31:16.455Z,85.25
2023-01-23T20:33:44.264Z,85.30
2023-01-23T20:36:11.417Z,85.53
2023-01-23T20:38:39.098Z,85.60
2023-01-23T20:41:09.049Z,85.33
2023-01-23T20:43:37.712Z,85.28
2023-01-23T20:46:05.984Z,85.08
2023-01-23T20:48:34.043Z,84.86
2023-01-23T20:51:01.135Z,85.05
2023-01-23T20:53:31.203Z,85.24
2023-01-23T20:56:02.807Z,85.37
2023-01-23T20:58:49.473Z,85.14
2023-01-23T21:01:19.841Z,85.23
2023-01-23T21:03:48.256Z,84.80
2023-01-23T21:06:16.258Z,84.64
2023-01-23T21:08:43.669Z,84.90
2023-01-23T21:11:13.390Z,84.86
2023-01-23T21:13:40.542Z,84.86
2023-01-23T21:16:09.116Z,85.02
2023-01-23T21:18:44.159Z,85.06
2023-01-23T21:21:18.295Z,84.66
2023-01-23T21:23:50.851Z,84.76
2023-01-23T21:26:20.462Z,84.69
2023-01-23T21:28:47.844Z,84.45
2023-01-23T21:31:20.277Z,84.60
2023-01-23T21:33:47.256Z,84.31
2023-01-23T21:36:16.736Z,84.25
2023-01-23T21:38:43.542Z,83.87
2023-01-23T21:41:11.553Z,83.54
2023-01-23T21:43:38.676Z,82.76
2023-01-23T21:46:06.329Z,82.61
2023-01-23T21:48:33.757Z,82.47
2023-01-23T21:51:20.749Z,82.53
2023-01-23T21:53:48.491Z,82.47
2023-01-23T21:56:17.695Z,82.16
2023-01-23T21:58:44.473Z,81.80
2023-01-23T22:01:31.489Z,81.50
2023-01-23T22:04:05.453Z,81.33
2023-01-23T22:06:37.090Z,81.27
2023-01-23T22:09:04.696Z,81.05
2023-01-23T22:11:31.930Z,80.89
2023-01-23T22:13:58.609Z,80.95
2023-01-23T22:16:35.971Z,80.71
2023-01-23T22:19:16.844Z,80.87
2023-01-23T22:21:45.719Z,80.78
2023-01-23T22:24:12.497Z,80.90
2023-01-23T22:26:39.419Z,80.59
2023-01-23T22:29:06.735Z,80.44
2023-01-23T22:31:34.218Z,80.36
2023-01-23T22:34:00.883Z,80.35
2023-01-23T22:36:27.469Z,80.02
2023-01-23T22:38:54.776Z,80.14
2023-01-23T22:41:21.519Z,80.03
2023-01-23T22:43:53.833Z,80.19
2023-01-23T22:46:21.134Z,80.34
2023-01-23T22:48:47.716Z,80.23
2023-01-23T22:51:16.443Z,80.27
2023-01-23T22:53:43.235Z,80.12
2023-01-23T22:56:10.011Z,79.76
2023-01-23T22:58:36.889Z,79.95
2023-01-23T23:01:03.594Z,79.93
2023-01-23T23:03:32.149Z,79.99
2023-01-23T23:06:00.863Z,79.96
2023-01-23T23:08:28.219Z,79.83
2023-01-23T23:10:59.176Z,79.93
2023-01-23T23:13:27.961Z,79.94
2023-01-23T23:15:54.772Z,79.86
2023-01-23T23:18:21.882Z,79.60
2023-01-23T23:20:48.855Z,79.57
2023-01-23T23:23:15.986Z,79.94
2023-01-23T23:25:43.049Z,79.95
2023-01-23T23:28:10.026Z,79.71
2023-01-23T23:30:36.974Z,79.86
2023-01-23T23:33:04.018Z,79.90
2023-01-23T23:35:32.308Z,79.70
2023-01-23T23:37:59.222Z,79.56
2023-01-23T23:40:26.085Z,79.51
2023-01-23T23:42:53.443Z,79.47
2023-01-23T23:45:20.517Z,79.33
2023-01-23T23:47:47.528Z,79.36
2023-01-23T23:50:14.484Z,79.18
2023-01-23T23:52:41.700Z,79.09
2023-01-23T23:55:08.610Z,79.09
2023-01-23T23:57:35.248Z,78.81
